sensor_id;sensor_type;location;lat;lon;timestamp;P1;durP1;ratioP1;P2;durP2;ratioP2
9322;SDS011;4700;48.822;9.270;2022-08-19T00:01:26;15.43;;;14.17;;
9322;SDS011;4700;48.822;9.270;2022-08-19T00:04:14;16.40;;;14.87;;
9322;SDS011;4700;48.822;9.270;2022-08-19T00:07:02;16.10;;;14.50;;
9322;SDS011;4700;48.822;9.270;2022-08-19T00:09:49;16.50;;;15.00;;
9322;SDS011;4700;48.822;9.270;2022-08-19T00:12:34;15.97;;;14.63;;
9322;SDS011;4700;48.822;9.270;2022-08-19T00:15:21;15.77;;;14.33;;
9322;SDS011;4700;48.822;9.270;2022-08-19T00:18:07;16.63;;;15.13;;
9322;SDS011;4700;48.822;9.270;2022-08-19T00:20:53;16.07;;;14.67;;
9322;SDS011;4700;48.822;9.270;2022-08-19T00:23:40;17.30;;;14.40;;
9322;SDS011;4700;48.822;9.270;2022-08-19T00:26:26;16.70;;;15.03;;
9322;SDS011;4700;48.822;9.270;2022-08-19T00:29:16;16.50;;;15.13;;
9322;SDS011;4700;48.822;9.270;2022-08-19T00:32:04;17.80;;;16.20;;
9322;SDS011;4700;48.822;9.270;2022-08-19T00:34:50;15.80;;;14.33;;
9322;SDS011;4700;48.822;9.270;2022-08-19T00:37:37;16.53;;;15.13;;
9322;SDS011;4700;48.822;9.270;2022-08-19T00:40:28;16.10;;;14.60;;
9322;SDS011;4700;48.822;9.270;2022-08-19T00:43:14;16.20;;;14.80;;
9322;SDS011;4700;48.822;9.270;2022-08-19T00:46:04;16.83;;;15.33;;
9322;SDS011;4700;48.822;9.270;2022-08-19T00:48:50;16.03;;;14.40;;
9322;SDS011;4700;48.822;9.270;2022-08-19T00:51:36;16.77;;;15.23;;
9322;SDS011;4700;48.822;9.270;2022-08-19T00:54:22;17.83;;;16.23;;
9322;SDS011;4700;48.822;9.270;2022-08-19T00:57:10;14.80;;;13.57;;
9322;SDS011;4700;48.822;9.270;2022-08-19T01:00:00;16.33;;;14.93;;
9322;SDS011;4700;48.822;9.270;2022-08-19T01:02:50;15.70;;;14.50;;
9322;SDS011;4700;48.822;9.270;2022-08-19T01:05:37;16.07;;;14.57;;
9322;SDS011;4700;48.822;9.270;2022-08-19T01:08:26;17.83;;;16.17;;
9322;SDS011;4700;48.822;9.270;2022-08-19T01:11:11;18.17;;;16.47;;
9322;SDS011;4700;48.822;9.270;2022-08-19T01:13:59;15.77;;;14.43;;
9322;SDS011;4700;48.822;9.270;2022-08-19T01:16:45;17.40;;;15.70;;
9322;SDS011;4700;48.822;9.270;2022-08-19T01:19:33;17.40;;;15.83;;
9322;SDS011;4700;48.822;9.270;2022-08-19T01:22:25;16.53;;;15.13;;
9322;SDS011;4700;48.822;9.270;2022-08-19T01:25:15;15.17;;;13.87;;
9322;SDS011;4700;48.822;9.270;2022-08-19T01:28:03;17.77;;;16.27;;
9322;SDS011;4700;48.822;9.270;2022-08-19T01:30:48;16.13;;;14.47;;
9322;SDS011;4700;48.822;9.270;2022-08-19T01:33:34;16.93;;;15.43;;
9322;SDS011;4700;48.822;9.270;2022-08-19T01:36:22;17.77;;;16.07;;
9322;SDS011;4700;48.822;9.270;2022-08-19T01:39:12;15.40;;;13.80;;
9322;SDS011;4700;48.822;9.270;2022-08-19T01:41:59;17.50;;;16.00;;
9322;SDS011;4700;48.822;9.270;2022-08-19T01:44:46;17.40;;;15.90;;
9322;SDS011;4700;48.822;9.270;2022-08-19T01:47:33;19.80;;;17.47;;
9322;SDS011;4700;48.822;9.270;2022-08-19T01:50:20;16.53;;;15.00;;
9322;SDS011;4700;48.822;9.270;2022-08-19T01:53:07;18.50;;;16.80;;
9322;SDS011;4700;48.822;9.270;2022-08-19T01:55:56;16.93;;;15.23;;
9322;SDS011;4700;48.822;9.270;2022-08-19T01:58:44;18.57;;;16.70;;
9322;SDS011;4700;48.822;9.270;2022-08-19T02:01:34;17.47;;;15.63;;
9322;SDS011;4700;48.822;9.270;2022-08-19T02:04:22;18.63;;;16.87;;
9322;SDS011;4700;48.822;9.270;2022-08-19T02:07:09;19.77;;;17.93;;
9322;SDS011;4700;48.822;9.270;2022-08-19T02:09:54;17.77;;;16.00;;
9322;SDS011;4700;48.822;9.270;2022-08-19T02:12:42;18.87;;;17.07;;
9322;SDS011;4700;48.822;9.270;2022-08-19T02:15:28;17.90;;;16.10;;
9322;SDS011;4700;48.822;9.270;2022-08-19T02:18:13;19.23;;;17.33;;
9322;SDS011;4700;48.822;9.270;2022-08-19T02:20:59;18.70;;;17.00;;
9322;SDS011;4700;48.822;9.270;2022-08-19T02:23:45;19.27;;;17.40;;
9322;SDS011;4700;48.822;9.270;2022-08-19T02:26:31;18.87;;;16.87;;
9322;SDS011;4700;48.822;9.270;2022-08-19T02:29:19;23.10;;;20.67;;
9322;SDS011;4700;48.822;9.270;2022-08-19T02:32:05;21.67;;;19.50;;
9322;SDS011;4700;48.822;9.270;2022-08-19T02:34:51;20.57;;;18.57;;
9322;SDS011;4700;48.822;9.270;2022-08-19T02:37:20;21.90;;;19.60;;
9322;SDS011;4700;48.822;9.270;2022-08-19T02:40:25;21.07;;;19.07;;
9322;SDS011;4700;48.822;9.270;2022-08-19T02:43:11;21.47;;;19.37;;
9322;SDS011;4700;48.822;9.270;2022-08-19T02:45:58;21.57;;;19.27;;
9322;SDS011;4700;48.822;9.270;2022-08-19T02:48:44;21.70;;;19.67;;
9322;SDS011;4700;48.822;9.270;2022-08-19T02:51:31;22.30;;;20.30;;
9322;SDS011;4700;48.822;9.270;2022-08-19T02:54:18;22.67;;;20.27;;
9322;SDS011;4700;48.822;9.270;2022-08-19T02:57:04;22.73;;;20.43;;
9322;SDS011;4700;48.822;9.270;2022-08-19T02:59:51;23.73;;;21.20;;
9322;SDS011;4700;48.822;9.270;2022-08-19T03:02:38;24.40;;;21.90;;
9322;SDS011;4700;48.822;9.270;2022-08-19T03:05:24;23.27;;;20.87;;
9322;SDS011;4700;48.822;9.270;2022-08-19T03:08:11;23.57;;;20.83;;
9322;SDS011;4700;48.822;9.270;2022-08-19T03:10:57;24.20;;;21.80;;
9322;SDS011;4700;48.822;9.270;2022-08-19T03:13:43;24.87;;;22.10;;
9322;SDS011;4700;48.822;9.270;2022-08-19T03:16:30;25.30;;;22.60;;
9322;SDS011;4700;48.822;9.270;2022-08-19T03:19:18;25.63;;;23.13;;
9322;SDS011;4700;48.822;9.270;2022-08-19T03:22:06;25.17;;;22.63;;
9322;SDS011;4700;48.822;9.270;2022-08-19T03:24:51;23.53;;;21.27;;
9322;SDS011;4700;48.822;9.270;2022-08-19T03:27:37;23.80;;;21.60;;
9322;SDS011;4700;48.822;9.270;2022-08-19T03:30:23;23.90;;;21.60;;
9322;SDS011;4700;48.822;9.270;2022-08-19T03:33:08;24.40;;;21.90;;
9322;SDS011;4700;48.822;9.270;2022-08-19T03:36:00;23.90;;;21.50;;
9322;SDS011;4700;48.822;9.270;2022-08-19T03:38:49;25.37;;;22.90;;
9322;SDS011;4700;48.822;9.270;2022-08-19T03:41:38;26.90;;;24.33;;
9322;SDS011;4700;48.822;9.270;2022-08-19T03:44:25;25.53;;;23.03;;
9322;SDS011;4700;48.822;9.270;2022-08-19T03:47:11;26.07;;;23.40;;
9322;SDS011;4700;48.822;9.270;2022-08-19T03:50:00;26.47;;;23.93;;
9322;SDS011;4700;48.822;9.270;2022-08-19T03:52:49;25.73;;;23.13;;
9322;SDS011;4700;48.822;9.270;2022-08-19T03:55:39;25.83;;;23.27;;
9322;SDS011;4700;48.822;9.270;2022-08-19T03:58:25;25.87;;;23.33;;
9322;SDS011;4700;48.822;9.270;2022-08-19T04:01:12;26.93;;;24.13;;
9322;SDS011;4700;48.822;9.270;2022-08-19T04:04:01;25.70;;;23.00;;
9322;SDS011;4700;48.822;9.270;2022-08-19T04:06:50;25.00;;;22.43;;
9322;SDS011;4700;48.822;9.270;2022-08-19T04:09:37;28.03;;;24.43;;
9322;SDS011;4700;48.822;9.270;2022-08-19T04:12:23;25.40;;;23.00;;
9322;SDS011;4700;48.822;9.270;2022-08-19T04:15:09;25.70;;;23.10;;
9322;SDS011;4700;48.822;9.270;2022-08-19T04:17:55;25.53;;;23.13;;
9322;SDS011;4700;48.822;9.270;2022-08-19T04:20:41;26.40;;;23.70;;
9322;SDS011;4700;48.822;9.270;2022-08-19T04:23:28;28.03;;;25.17;;
9322;SDS011;4700;48.822;9.270;2022-08-19T04:26:15;25.70;;;23.00;;
9322;SDS011;4700;48.822;9.270;2022-08-19T04:29:04;26.97;;;24.20;;
9322;SDS011;4700;48.822;9.270;2022-08-19T04:31:51;26.63;;;23.93;;
9322;SDS011;4700;48.822;9.270;2022-08-19T04:34:38;27.27;;;24.23;;
9322;SDS011;4700;48.822;9.270;2022-08-19T04:37:23;26.87;;;24.37;;
9322;SDS011;4700;48.822;9.270;2022-08-19T04:40:10;29.57;;;26.37;;
9322;SDS011;4700;48.822;9.270;2022-08-19T04:43:15;28.97;;;26.27;;
9322;SDS011;4700;48.822;9.270;2022-08-19T04:46:04;29.60;;;26.70;;
9322;SDS011;4700;48.822;9.270;2022-08-19T04:48:50;27.90;;;25.00;;
9322;SDS011;4700;48.822;9.270;2022-08-19T04:51:36;29.47;;;26.67;;
9322;SDS011;4700;48.822;9.270;2022-08-19T04:54:27;29.47;;;26.37;;
9322;SDS011;4700;48.822;9.270;2022-08-19T04:57:12;28.50;;;25.70;;
9322;SDS011;4700;48.822;9.270;2022-08-19T05:00:00;27.47;;;24.90;;
9322;SDS011;4700;48.822;9.270;2022-08-19T05:02:46;29.37;;;26.30;;
9322;SDS011;4700;48.822;9.270;2022-08-19T05:05:32;29.37;;;26.50;;
9322;SDS011;4700;48.822;9.270;2022-08-19T05:08:19;29.03;;;26.13;;
9322;SDS011;4700;48.822;9.270;2022-08-19T05:11:12;29.30;;;26.50;;
9322;SDS011;4700;48.822;9.270;2022-08-19T05:13:59;27.33;;;24.63;;
9322;SDS011;4700;48.822;9.270;2022-08-19T05:16:46;28.33;;;25.07;;
9322;SDS011;4700;48.822;9.270;2022-08-19T05:19:32;30.10;;;26.67;;
9322;SDS011;4700;48.822;9.270;2022-08-19T05:22:35;30.77;;;27.63;;
9322;SDS011;4700;48.822;9.270;2022-08-19T05:25:21;29.63;;;26.73;;
9322;SDS011;4700;48.822;9.270;2022-08-19T05:28:10;28.57;;;25.93;;
9322;SDS011;4700;48.822;9.270;2022-08-19T05:30:56;29.83;;;26.93;;
9322;SDS011;4700;48.822;9.270;2022-08-19T05:33:42;27.53;;;25.07;;
9322;SDS011;4700;48.822;9.270;2022-08-19T05:36:28;28.93;;;26.20;;
9322;SDS011;4700;48.822;9.270;2022-08-19T05:39:19;31.20;;;28.30;;
9322;SDS011;4700;48.822;9.270;2022-08-19T05:42:05;26.37;;;23.67;;
9322;SDS011;4700;48.822;9.270;2022-08-19T05:44:52;30.00;;;24.87;;
9322;SDS011;4700;48.822;9.270;2022-08-19T05:47:40;30.27;;;27.27;;
9322;SDS011;4700;48.822;9.270;2022-08-19T05:50:27;27.97;;;24.97;;
9322;SDS011;4700;48.822;9.270;2022-08-19T05:53:13;27.73;;;24.73;;
9322;SDS011;4700;48.822;9.270;2022-08-19T05:56:03;31.10;;;27.90;;
9322;SDS011;4700;48.822;9.270;2022-08-19T05:58:49;28.40;;;25.60;;
9322;SDS011;4700;48.822;9.270;2022-08-19T06:01:37;28.77;;;26.00;;
9322;SDS011;4700;48.822;9.270;2022-08-19T06:04:23;31.17;;;27.33;;
9322;SDS011;4700;48.822;9.270;2022-08-19T06:07:11;31.00;;;26.27;;
9322;SDS011;4700;48.822;9.270;2022-08-19T06:09:57;27.60;;;24.93;;
9322;SDS011;4700;48.822;9.270;2022-08-19T06:12:43;28.97;;;26.27;;
9322;SDS011;4700;48.822;9.270;2022-08-19T06:15:30;26.63;;;24.03;;
9322;SDS011;4700;48.822;9.270;2022-08-19T06:18:16;29.70;;;26.60;;
9322;SDS011;4700;48.822;9.270;2022-08-19T06:21:03;28.87;;;26.07;;
9322;SDS011;4700;48.822;9.270;2022-08-19T06:23:50;30.10;;;27.30;;
9322;SDS011;4700;48.822;9.270;2022-08-19T06:26:39;29.77;;;26.73;;
9322;SDS011;4700;48.822;9.270;2022-08-19T06:29:27;29.40;;;26.57;;
9322;SDS011;4700;48.822;9.270;2022-08-19T06:32:15;32.60;;;29.40;;
9322;SDS011;4700;48.822;9.270;2022-08-19T06:35:02;50.07;;;28.40;;
9322;SDS011;4700;48.822;9.270;2022-08-19T06:37:49;31.77;;;27.87;;
9322;SDS011;4700;48.822;9.270;2022-08-19T06:40:37;29.57;;;26.47;;
9322;SDS011;4700;48.822;9.270;2022-08-19T06:43:23;30.03;;;26.83;;
9322;SDS011;4700;48.822;9.270;2022-08-19T06:46:09;28.73;;;25.87;;
9322;SDS011;4700;48.822;9.270;2022-08-19T06:48:57;29.73;;;26.90;;
9322;SDS011;4700;48.822;9.270;2022-08-19T06:51:43;28.00;;;25.30;;
9322;SDS011;4700;48.822;9.270;2022-08-19T06:54:31;29.53;;;26.73;;
9322;SDS011;4700;48.822;9.270;2022-08-19T06:57:18;28.43;;;25.80;;
9322;SDS011;4700;48.822;9.270;2022-08-19T07:00:04;27.63;;;25.27;;
9322;SDS011;4700;48.822;9.270;2022-08-19T07:02:54;26.70;;;24.37;;
9322;SDS011;4700;48.822;9.270;2022-08-19T07:05:40;36.13;;;27.53;;
9322;SDS011;4700;48.822;9.270;2022-08-19T07:08:26;29.30;;;26.50;;
9322;SDS011;4700;48.822;9.270;2022-08-19T07:11:15;28.63;;;25.83;;
9322;SDS011;4700;48.822;9.270;2022-08-19T07:14:04;29.60;;;26.50;;
9322;SDS011;4700;48.822;9.270;2022-08-19T07:16:51;26.90;;;24.27;;
9322;SDS011;4700;48.822;9.270;2022-08-19T07:19:38;27.83;;;25.07;;
9322;SDS011;4700;48.822;9.270;2022-08-19T07:22:24;27.57;;;25.17;;
9322;SDS011;4700;48.822;9.270;2022-08-19T07:25:10;27.83;;;25.33;;
9322;SDS011;4700;48.822;9.270;2022-08-19T07:27:56;27.33;;;24.70;;
9322;SDS011;4700;48.822;9.270;2022-08-19T07:30:43;41.70;;;37.40;;
9322;SDS011;4700;48.822;9.270;2022-08-19T07:33:29;30.80;;;27.83;;
9322;SDS011;4700;48.822;9.270;2022-08-19T07:36:17;29.30;;;25.97;;
9322;SDS011;4700;48.822;9.270;2022-08-19T07:39:06;28.23;;;25.47;;
9322;SDS011;4700;48.822;9.270;2022-08-19T07:41:54;25.47;;;22.80;;
9322;SDS011;4700;48.822;9.270;2022-08-19T07:44:41;26.00;;;23.57;;
9322;SDS011;4700;48.822;9.270;2022-08-19T07:47:30;27.20;;;24.50;;
9322;SDS011;4700;48.822;9.270;2022-08-19T07:50:17;25.43;;;23.13;;
9322;SDS011;4700;48.822;9.270;2022-08-19T07:53:07;25.27;;;22.87;;
9322;SDS011;4700;48.822;9.270;2022-08-19T07:55:52;27.07;;;24.67;;
9322;SDS011;4700;48.822;9.270;2022-08-19T07:58:39;25.43;;;23.03;;
9322;SDS011;4700;48.822;9.270;2022-08-19T08:01:27;25.80;;;23.40;;
9322;SDS011;4700;48.822;9.270;2022-08-19T08:04:14;27.07;;;24.23;;
9322;SDS011;4700;48.822;9.270;2022-08-19T08:07:18;25.57;;;22.90;;
9322;SDS011;4700;48.822;9.270;2022-08-19T08:10:22;25.77;;;23.27;;
9322;SDS011;4700;48.822;9.270;2022-08-19T08:13:08;25.17;;;22.93;;
9322;SDS011;4700;48.822;9.270;2022-08-19T08:15:54;25.50;;;23.10;;
9322;SDS011;4700;48.822;9.270;2022-08-19T08:18:40;25.27;;;22.93;;
9322;SDS011;4700;48.822;9.270;2022-08-19T08:21:28;27.80;;;25.20;;
9322;SDS011;4700;48.822;9.270;2022-08-19T08:24:14;25.50;;;22.87;;
9322;SDS011;4700;48.822;9.270;2022-08-19T08:27:01;25.23;;;22.67;;
9322;SDS011;4700;48.822;9.270;2022-08-19T08:29:47;26.33;;;23.77;;
9322;SDS011;4700;48.822;9.270;2022-08-19T08:32:33;24.20;;;22.10;;
9322;SDS011;4700;48.822;9.270;2022-08-19T08:35:19;26.30;;;23.90;;
9322;SDS011;4700;48.822;9.270;2022-08-19T08:38:09;24.83;;;22.43;;
9322;SDS011;4700;48.822;9.270;2022-08-19T08:40:56;25.03;;;22.53;;
9322;SDS011;4700;48.822;9.270;2022-08-19T08:43:53;31.97;;;23.57;;
9322;SDS011;4700;48.822;9.270;2022-08-19T08:46:41;26.00;;;22.23;;
9322;SDS011;4700;48.822;9.270;2022-08-19T08:49:33;24.03;;;21.80;;
9322;SDS011;4700;48.822;9.270;2022-08-19T08:52:26;22.17;;;20.23;;
9322;SDS011;4700;48.822;9.270;2022-08-19T08:55:16;23.13;;;20.97;;
9322;SDS011;4700;48.822;9.270;2022-08-19T08:58:05;21.93;;;19.67;;
9322;SDS011;4700;48.822;9.270;2022-08-19T09:00:58;22.00;;;20.00;;
9322;SDS011;4700;48.822;9.270;2022-08-19T09:03:44;24.27;;;22.07;;
9322;SDS011;4700;48.822;9.270;2022-08-19T09:06:32;24.07;;;21.80;;
9322;SDS011;4700;48.822;9.270;2022-08-19T09:09:25;25.67;;;23.17;;
9322;SDS011;4700;48.822;9.270;2022-08-19T09:12:19;23.33;;;21.33;;
9322;SDS011;4700;48.822;9.270;2022-08-19T09:15:11;23.30;;;20.93;;
9322;SDS011;4700;48.822;9.270;2022-08-19T09:18:00;23.53;;;21.47;;
9322;SDS011;4700;48.822;9.270;2022-08-19T09:20:48;21.90;;;20.00;;
9322;SDS011;4700;48.822;9.270;2022-08-19T09:23:34;22.23;;;20.23;;
9322;SDS011;4700;48.822;9.270;2022-08-19T09:26:21;22.93;;;20.77;;
9322;SDS011;4700;48.822;9.270;2022-08-19T09:29:10;23.87;;;21.47;;
9322;SDS011;4700;48.822;9.270;2022-08-19T09:31:56;23.60;;;21.70;;
9322;SDS011;4700;48.822;9.270;2022-08-19T09:34:44;24.97;;;22.27;;
9322;SDS011;4700;48.822;9.270;2022-08-19T09:37:29;23.10;;;20.80;;
9322;SDS011;4700;48.822;9.270;2022-08-19T09:40:15;25.97;;;20.80;;
9322;SDS011;4700;48.822;9.270;2022-08-19T09:43:01;25.53;;;23.03;;
9322;SDS011;4700;48.822;9.270;2022-08-19T09:45:50;23.70;;;21.40;;
9322;SDS011;4700;48.822;9.270;2022-08-19T09:48:39;24.20;;;21.80;;
9322;SDS011;4700;48.822;9.270;2022-08-19T09:51:26;24.70;;;22.23;;
9322;SDS011;4700;48.822;9.270;2022-08-19T09:54:14;24.83;;;22.63;;
9322;SDS011;4700;48.822;9.270;2022-08-19T09:57:06;25.30;;;23.00;;
9322;SDS011;4700;48.822;9.270;2022-08-19T09:59:52;24.83;;;22.50;;
9322;SDS011;4700;48.822;9.270;2022-08-19T10:02:39;26.23;;;23.70;;
9322;SDS011;4700;48.822;9.270;2022-08-19T10:05:27;25.07;;;22.87;;
9322;SDS011;4700;48.822;9.270;2022-08-19T10:08:32;26.90;;;24.10;;
9322;SDS011;4700;48.822;9.270;2022-08-19T10:11:19;28.17;;;25.57;;
9322;SDS011;4700;48.822;9.270;2022-08-19T10:14:06;28.97;;;26.07;;
9322;SDS011;4700;48.822;9.270;2022-08-19T10:16:52;29.03;;;26.03;;
9322;SDS011;4700;48.822;9.270;2022-08-19T10:19:39;25.83;;;23.23;;
9322;SDS011;4700;48.822;9.270;2022-08-19T10:22:25;25.00;;;22.70;;
9322;SDS011;4700;48.822;9.270;2022-08-19T10:25:14;22.93;;;20.83;;
9322;SDS011;4700;48.822;9.270;2022-08-19T10:28:00;25.10;;;22.60;;
9322;SDS011;4700;48.822;9.270;2022-08-19T10:30:47;25.93;;;23.60;;
9322;SDS011;4700;48.822;9.270;2022-08-19T10:33:34;24.93;;;22.53;;
9322;SDS011;4700;48.822;9.270;2022-08-19T10:36:23;26.20;;;23.53;;
9322;SDS011;4700;48.822;9.270;2022-08-19T10:38:50;26.30;;;23.73;;
9322;SDS011;4700;48.822;9.270;2022-08-19T10:41:37;24.43;;;22.13;;
9322;SDS011;4700;48.822;9.270;2022-08-19T10:44:24;24.47;;;22.20;;
9322;SDS011;4700;48.822;9.270;2022-08-19T10:47:12;24.13;;;21.83;;
9322;SDS011;4700;48.822;9.270;2022-08-19T10:49:58;24.90;;;22.63;;
9322;SDS011;4700;48.822;9.270;2022-08-19T10:53:04;54.20;;;24.20;;
9322;SDS011;4700;48.822;9.270;2022-08-19T10:55:53;22.73;;;20.53;;
9322;SDS011;4700;48.822;9.270;2022-08-19T10:58:56;21.27;;;19.47;;
9322;SDS011;4700;48.822;9.270;2022-08-19T11:01:43;23.27;;;20.60;;
9322;SDS011;4700;48.822;9.270;2022-08-19T11:04:30;19.80;;;17.73;;
9322;SDS011;4700;48.822;9.270;2022-08-19T11:07:16;19.70;;;17.80;;
9322;SDS011;4700;48.822;9.270;2022-08-19T11:10:04;19.90;;;18.20;;
9322;SDS011;4700;48.822;9.270;2022-08-19T11:12:51;19.83;;;18.03;;
9322;SDS011;4700;48.822;9.270;2022-08-19T11:15:38;20.37;;;18.50;;
9322;SDS011;4700;48.822;9.270;2022-08-19T11:18:24;19.07;;;17.57;;
9322;SDS011;4700;48.822;9.270;2022-08-19T11:21:11;17.23;;;15.83;;
9322;SDS011;4700;48.822;9.270;2022-08-19T11:24:01;17.80;;;16.30;;
9322;SDS011;4700;48.822;9.270;2022-08-19T11:26:52;19.13;;;17.30;;
9322;SDS011;4700;48.822;9.270;2022-08-19T11:29:43;28.57;;;25.77;;
9322;SDS011;4700;48.822;9.270;2022-08-19T11:32:29;17.37;;;15.87;;
9322;SDS011;4700;48.822;9.270;2022-08-19T11:35:19;16.60;;;15.03;;
9322;SDS011;4700;48.822;9.270;2022-08-19T11:38:07;16.70;;;15.20;;
9322;SDS011;4700;48.822;9.270;2022-08-19T11:40:56;21.07;;;15.90;;
9322;SDS011;4700;48.822;9.270;2022-08-19T11:43:46;14.40;;;13.27;;
9322;SDS011;4700;48.822;9.270;2022-08-19T11:46:32;16.37;;;14.87;;
9322;SDS011;4700;48.822;9.270;2022-08-19T11:49:18;19.53;;;17.47;;
9322;SDS011;4700;48.822;9.270;2022-08-19T11:52:05;19.60;;;17.90;;
9322;SDS011;4700;48.822;9.270;2022-08-19T11:54:51;16.37;;;14.93;;
9322;SDS011;4700;48.822;9.270;2022-08-19T11:57:36;16.33;;;14.83;;
9322;SDS011;4700;48.822;9.270;2022-08-19T12:00:24;20.17;;;18.43;;
9322;SDS011;4700;48.822;9.270;2022-08-19T12:03:10;19.20;;;17.43;;
9322;SDS011;4700;48.822;9.270;2022-08-19T12:05:56;20.00;;;18.10;;
9322;SDS011;4700;48.822;9.270;2022-08-19T12:08:42;19.80;;;18.10;;
9322;SDS011;4700;48.822;9.270;2022-08-19T12:11:29;18.73;;;17.23;;
9322;SDS011;4700;48.822;9.270;2022-08-19T12:14:15;16.80;;;15.37;;
9322;SDS011;4700;48.822;9.270;2022-08-19T12:17:03;15.47;;;14.03;;
9322;SDS011;4700;48.822;9.270;2022-08-19T12:19:51;16.13;;;14.60;;
9322;SDS011;4700;48.822;9.270;2022-08-19T12:22:39;15.83;;;14.60;;
9322;SDS011;4700;48.822;9.270;2022-08-19T12:25:26;15.30;;;13.93;;
9322;SDS011;4700;48.822;9.270;2022-08-19T12:28:12;14.40;;;13.10;;
9322;SDS011;4700;48.822;9.270;2022-08-19T12:30:58;15.03;;;13.73;;
9322;SDS011;4700;48.822;9.270;2022-08-19T12:33:45;15.03;;;13.73;;
9322;SDS011;4700;48.822;9.270;2022-08-19T12:36:36;13.53;;;12.53;;
9322;SDS011;4700;48.822;9.270;2022-08-19T12:39:10;14.57;;;13.47;;
9322;SDS011;4700;48.822;9.270;2022-08-19T12:41:56;14.77;;;13.50;;
9322;SDS011;4700;48.822;9.270;2022-08-19T12:44:43;12.77;;;11.67;;
9322;SDS011;4700;48.822;9.270;2022-08-19T12:47:29;16.60;;;15.17;;
9322;SDS011;4700;48.822;9.270;2022-08-19T12:50:16;17.33;;;15.93;;
9322;SDS011;4700;48.822;9.270;2022-08-19T12:53:02;17.93;;;16.53;;
9322;SDS011;4700;48.822;9.270;2022-08-19T12:55:53;19.83;;;18.00;;
9322;SDS011;4700;48.822;9.270;2022-08-19T12:58:41;22.60;;;20.73;;
9322;SDS011;4700;48.822;9.270;2022-08-19T13:01:28;25.40;;;22.10;;
9322;SDS011;4700;48.822;9.270;2022-08-19T13:04:16;20.83;;;18.97;;
9322;SDS011;4700;48.822;9.270;2022-08-19T13:07:03;25.30;;;22.57;;
9322;SDS011;4700;48.822;9.270;2022-08-19T13:09:50;25.63;;;23.10;;
9322;SDS011;4700;48.822;9.270;2022-08-19T13:12:37;29.50;;;26.70;;
9322;SDS011;4700;48.822;9.270;2022-08-19T13:15:25;33.03;;;29.90;;
9322;SDS011;4700;48.822;9.270;2022-08-19T13:18:12;33.67;;;30.53;;
9322;SDS011;4700;48.822;9.270;2022-08-19T13:21:01;35.47;;;31.87;;
9322;SDS011;4700;48.822;9.270;2022-08-19T13:23:49;37.67;;;33.80;;
9322;SDS011;4700;48.822;9.270;2022-08-19T13:26:35;33.40;;;30.23;;
9322;SDS011;4700;48.822;9.270;2022-08-19T13:29:23;33.93;;;30.73;;
9322;SDS011;4700;48.822;9.270;2022-08-19T13:32:28;30.37;;;27.53;;
9322;SDS011;4700;48.822;9.270;2022-08-19T13:35:32;30.33;;;27.53;;
9322;SDS011;4700;48.822;9.270;2022-08-19T13:38:19;27.37;;;24.87;;
9322;SDS011;4700;48.822;9.270;2022-08-19T13:41:08;30.30;;;27.50;;
9322;SDS011;4700;48.822;9.270;2022-08-19T13:43:54;27.73;;;25.17;;
9322;SDS011;4700;48.822;9.270;2022-08-19T13:46:39;26.00;;;23.50;;
9322;SDS011;4700;48.822;9.270;2022-08-19T13:49:28;26.37;;;23.97;;
9322;SDS011;4700;48.822;9.270;2022-08-19T13:52:17;29.93;;;25.13;;
9322;SDS011;4700;48.822;9.270;2022-08-19T13:55:03;26.47;;;24.17;;
9322;SDS011;4700;48.822;9.270;2022-08-19T13:57:53;27.53;;;24.93;;
9322;SDS011;4700;48.822;9.270;2022-08-19T14:00:41;29.93;;;26.97;;
9322;SDS011;4700;48.822;9.270;2022-08-19T14:03:28;30.10;;;27.17;;
9322;SDS011;4700;48.822;9.270;2022-08-19T14:06:15;31.10;;;27.83;;
9322;SDS011;4700;48.822;9.270;2022-08-19T14:09:02;30.00;;;27.20;;
9322;SDS011;4700;48.822;9.270;2022-08-19T14:11:48;31.43;;;28.03;;
9322;SDS011;4700;48.822;9.270;2022-08-19T14:14:37;30.93;;;28.00;;
9322;SDS011;4700;48.822;9.270;2022-08-19T14:17:23;29.97;;;26.93;;
9322;SDS011;4700;48.822;9.270;2022-08-19T14:20:10;29.20;;;26.60;;
9322;SDS011;4700;48.822;9.270;2022-08-19T14:22:56;28.17;;;25.63;;
9322;SDS011;4700;48.822;9.270;2022-08-19T14:25:43;27.63;;;25.03;;
9322;SDS011;4700;48.822;9.270;2022-08-19T14:28:30;32.87;;;29.87;;
9322;SDS011;4700;48.822;9.270;2022-08-19T14:31:18;31.07;;;27.80;;
9322;SDS011;4700;48.822;9.270;2022-08-19T14:34:05;31.40;;;28.33;;
9322;SDS011;4700;48.822;9.270;2022-08-19T14:36:50;32.73;;;29.63;;
9322;SDS011;4700;48.822;9.270;2022-08-19T14:39:33;33.43;;;30.10;;
9322;SDS011;4700;48.822;9.270;2022-08-19T14:42:20;32.27;;;29.07;;
9322;SDS011;4700;48.822;9.270;2022-08-19T14:45:07;34.30;;;30.90;;
9322;SDS011;4700;48.822;9.270;2022-08-19T14:47:55;35.33;;;32.03;;
9322;SDS011;4700;48.822;9.270;2022-08-19T14:50:43;33.20;;;30.00;;
9322;SDS011;4700;48.822;9.270;2022-08-19T14:53:29;36.20;;;32.67;;
9322;SDS011;4700;48.822;9.270;2022-08-19T14:56:18;35.10;;;31.70;;
9322;SDS011;4700;48.822;9.270;2022-08-19T14:59:05;33.83;;;30.63;;
9322;SDS011;4700;48.822;9.270;2022-08-19T15:01:50;33.97;;;30.70;;
9322;SDS011;4700;48.822;9.270;2022-08-19T15:04:37;31.67;;;28.77;;
9322;SDS011;4700;48.822;9.270;2022-08-19T15:07:23;32.87;;;29.47;;
9322;SDS011;4700;48.822;9.270;2022-08-19T15:10:11;32.57;;;29.67;;
9322;SDS011;4700;48.822;9.270;2022-08-19T15:12:59;29.93;;;26.37;;
9322;SDS011;4700;48.822;9.270;2022-08-19T15:15:44;31.17;;;28.50;;
9322;SDS011;4700;48.822;9.270;2022-08-19T15:18:31;28.93;;;26.47;;
9322;SDS011;4700;48.822;9.270;2022-08-19T15:21:20;28.33;;;25.43;;
9322;SDS011;4700;48.822;9.270;2022-08-19T15:24:09;25.70;;;23.27;;
9322;SDS011;4700;48.822;9.270;2022-08-19T15:26:55;26.37;;;23.83;;
9322;SDS011;4700;48.822;9.270;2022-08-19T15:29:41;27.90;;;25.40;;
9322;SDS011;4700;48.822;9.270;2022-08-19T15:32:30;26.63;;;24.13;;
9322;SDS011;4700;48.822;9.270;2022-08-19T15:35:16;24.80;;;22.70;;
9322;SDS011;4700;48.822;9.270;2022-08-19T15:38:04;25.90;;;23.37;;
9322;SDS011;4700;48.822;9.270;2022-08-19T15:40:51;22.17;;;20.07;;
9322;SDS011;4700;48.822;9.270;2022-08-19T15:43:37;26.27;;;24.07;;
9322;SDS011;4700;48.822;9.270;2022-08-19T15:46:27;30.07;;;27.27;;
9322;SDS011;4700;48.822;9.270;2022-08-19T15:49:15;26.23;;;23.53;;
9322;SDS011;4700;48.822;9.270;2022-08-19T15:52:02;27.73;;;24.83;;
9322;SDS011;4700;48.822;9.270;2022-08-19T15:54:52;29.30;;;26.60;;
9322;SDS011;4700;48.822;9.270;2022-08-19T15:57:37;31.67;;;28.80;;
9322;SDS011;4700;48.822;9.270;2022-08-19T16:00:53;33.20;;;29.87;;
9322;SDS011;4700;48.822;9.270;2022-08-19T16:03:58;32.70;;;29.43;;
9322;SDS011;4700;48.822;9.270;2022-08-19T16:07:04;32.77;;;29.77;;
9322;SDS011;4700;48.822;9.270;2022-08-19T16:09:52;32.63;;;29.27;;
9322;SDS011;4700;48.822;9.270;2022-08-19T16:12:38;31.00;;;28.30;;
9322;SDS011;4700;48.822;9.270;2022-08-19T16:15:24;32.60;;;29.30;;
9322;SDS011;4700;48.822;9.270;2022-08-19T16:18:13;31.87;;;28.97;;
9322;SDS011;4700;48.822;9.270;2022-08-19T16:20:58;31.27;;;28.53;;
9322;SDS011;4700;48.822;9.270;2022-08-19T16:23:44;30.33;;;27.60;;
9322;SDS011;4700;48.822;9.270;2022-08-19T16:26:33;33.03;;;30.07;;
9322;SDS011;4700;48.822;9.270;2022-08-19T16:29:20;31.40;;;28.30;;
9322;SDS011;4700;48.822;9.270;2022-08-19T16:32:07;29.17;;;26.60;;
9322;SDS011;4700;48.822;9.270;2022-08-19T16:34:54;31.60;;;28.67;;
9322;SDS011;4700;48.822;9.270;2022-08-19T16:37:39;30.50;;;27.50;;
9322;SDS011;4700;48.822;9.270;2022-08-19T16:40:28;28.17;;;25.40;;
9322;SDS011;4700;48.822;9.270;2022-08-19T16:43:15;29.23;;;26.63;;
9322;SDS011;4700;48.822;9.270;2022-08-19T16:46:01;29.67;;;26.90;;
9322;SDS011;4700;48.822;9.270;2022-08-19T16:48:47;28.67;;;26.07;;
9322;SDS011;4700;48.822;9.270;2022-08-19T16:51:33;29.13;;;26.70;;